createdAt,value
2023-02-07T00:00:30.270Z,0.00
2023-02-07T00:01:30.287Z,0.00
2023-02-07T00:03:53.245Z,0.00
2023-02-07T00:04:53.264Z,0.00
2023-02-07T00:05:53.268Z,0.00
2023-02-07T00:06:53.238Z,0.00
2023-02-07T00:07:53.228Z,0.00
2023-02-07T00:08:53.228Z,0.00
2023-02-07T00:09:53.203Z,0.00
2023-02-07T00:10:53.204Z,0.00
2023-02-07T00:11:53.184Z,0.00
2023-02-07T00:12:53.206Z,0.00
2023-02-07T00:13:53.157Z,0.00
2023-02-07T00:14:53.151Z,0.00
2023-02-07T00:15:53.151Z,0.00
2023-02-07T00:16:53.194Z,0.00
2023-02-07T00:17:53.121Z,0.00
2023-02-07T00:18:53.116Z,0.00
2023-02-07T00:19:53.105Z,0.00
2023-02-07T00:20:53.110Z,0.00
2023-02-07T00:21:53.085Z,0.00
2023-02-07T00:22:53.065Z,0.00
2023-02-07T00:23:53.099Z,0.00
2023-02-07T00:24:53.044Z,0.00
2023-02-07T00:25:53.037Z,0.00
2023-02-07T00:26:53.072Z,0.00
2023-02-07T00:27:53.190Z,0.00
2023-02-07T00:28:53.018Z,0.00
2023-02-07T00:29:53.012Z,0.00
2023-02-07T00:30:53.109Z,0.00
2023-02-07T00:31:52.999Z,0.00
2023-02-07T00:32:52.970Z,0.00
2023-02-07T00:33:52.970Z,0.00
2023-02-07T00:34:52.945Z,0.00
2023-02-07T00:35:52.945Z,0.00
2023-02-07T00:36:52.943Z,0.00
2023-02-07T00:37:52.922Z,0.00
2023-02-07T00:38:52.905Z,0.00
2023-02-07T00:39:52.896Z,0.00
2023-02-07T00:40:52.887Z,0.00
2023-02-07T00:41:52.904Z,0.00
2023-02-07T00:42:52.874Z,0.00
2023-02-07T00:43:52.870Z,0.00
2023-02-07T00:44:52.857Z,0.00
2023-02-07T00:45:52.880Z,0.00
2023-02-07T00:46:52.846Z,0.00
2023-02-07T00:47:52.818Z,0.00
2023-02-07T00:48:52.828Z,0.00
2023-02-07T00:49:52.811Z,0.00
2023-02-07T00:50:52.794Z,0.00
2023-02-07T00:51:52.803Z,0.00
2023-02-07T00:52:52.774Z,0.00
2023-02-07T00:53:52.754Z,0.00
2023-02-07T00:54:52.747Z,0.00
2023-02-07T00:55:52.737Z,0.00
2023-02-07T00:56:52.735Z,0.00
2023-02-07T00:57:52.719Z,0.00
2023-02-07T00:58:52.724Z,0.00
2023-02-07T00:59:52.709Z,0.00
2023-02-07T01:00:52.863Z,0.00
2023-02-07T01:01:52.687Z,0.00
2023-02-07T01:02:52.668Z,0.00
2023-02-07T01:03:52.666Z,0.00
2023-02-07T01:04:52.705Z,0.00
2023-02-07T01:05:52.647Z,0.00
2023-02-07T01:06:52.645Z,0.00
2023-02-07T01:07:52.626Z,0.00
2023-02-07T01:08:52.611Z,0.00
2023-02-07T01:09:52.602Z,0.00
2023-02-07T01:10:52.593Z,0.00
2023-02-07T01:11:52.600Z,0.00
2023-02-07T01:12:52.572Z,0.00
2023-02-07T01:13:52.572Z,0.00
2023-02-07T01:14:52.551Z,0.00
2023-02-07T01:15:52.587Z,0.00
2023-02-07T01:16:52.549Z,0.00
2023-02-07T01:17:52.541Z,0.00
2023-02-07T01:18:52.563Z,0.00
2023-02-07T01:19:52.516Z,0.00
2023-02-07T01:20:52.497Z,0.00
2023-02-07T01:21:52.505Z,0.00
2023-02-07T01:22:52.487Z,0.00
2023-02-07T01:23:52.478Z,0.00
2023-02-07T01:24:52.460Z,0.00
2023-02-07T01:25:52.449Z,0.00
2023-02-07T01:26:52.445Z,0.00
2023-02-07T01:27:52.462Z,0.00
2023-02-07T01:28:52.415Z,0.00
2023-02-07T01:29:52.406Z,0.00
2023-02-07T01:30:52.473Z,0.00
2023-02-07T01:31:52.468Z,0.00
2023-02-07T01:32:52.374Z,0.00
2023-02-07T01:33:52.367Z,0.00
2023-02-07T01:34:52.369Z,0.00
2023-02-07T01:35:52.379Z,0.00
2023-02-07T01:36:52.359Z,0.00
2023-02-07T01:37:52.328Z,0.00
2023-02-07T01:38:52.325Z,0.00
2023-02-07T01:39:52.303Z,0.00
2023-02-07T01:40:52.299Z,0.00
2023-02-07T01:41:52.296Z,0.00
2023-02-07T01:42:52.281Z,0.00
2023-02-07T01:43:52.266Z,0.00
2023-02-07T01:44:52.253Z,0.00
2023-02-07T01:45:52.275Z,0.00
2023-02-07T01:46:52.247Z,0.00
2023-02-07T01:47:52.228Z,0.00
2023-02-07T01:48:52.216Z,0.00
2023-02-07T01:49:52.209Z,0.00
2023-02-07T01:50:52.199Z,0.00
2023-02-07T01:51:52.213Z,0.00
2023-02-07T01:52:52.188Z,0.00
2023-02-07T01:53:52.172Z,0.00
2023-02-07T01:54:52.157Z,0.00
2023-02-07T01:55:52.151Z,0.00
2023-02-07T01:56:52.150Z,0.00
2023-02-07T01:57:52.165Z,0.00
2023-02-07T01:58:52.112Z,0.00
2023-02-07T01:59:52.110Z,0.00
2023-02-07T02:00:52.101Z,0.00
2023-02-07T02:01:52.104Z,0.00
2023-02-07T02:02:52.140Z,0.00
2023-02-07T02:03:52.073Z,0.00
2023-02-07T02:04:52.062Z,0.00
2023-02-07T02:05:52.047Z,0.00
2023-02-07T02:06:52.054Z,0.00
2023-02-07T02:07:52.034Z,0.00
2023-02-07T02:08:52.021Z,0.00
2023-02-07T02:09:52.007Z,0.00
2023-02-07T02:10:51.997Z,0.00
2023-02-07T02:11:51.993Z,0.00
2023-02-07T02:12:51.984Z,0.00
2023-02-07T02:13:51.957Z,0.00
2023-02-07T02:14:51.956Z,0.00
2023-02-07T02:15:51.959Z,0.00
2023-02-07T02:16:51.963Z,0.00
2023-02-07T02:17:51.923Z,0.00
2023-02-07T02:18:51.922Z,0.00
2023-02-07T02:19:51.917Z,0.00
2023-02-07T02:20:51.897Z,0.00
2023-02-07T02:21:51.892Z,0.00
2023-02-07T02:22:51.891Z,0.00
2023-02-07T02:23:51.869Z,0.00
2023-02-07T02:24:51.862Z,0.00
2023-02-07T02:25:51.850Z,0.00
2023-02-07T02:26:51.849Z,0.00
2023-02-07T02:27:51.846Z,0.00
2023-02-07T02:28:51.827Z,0.00
2023-02-07T02:29:51.822Z,0.00
2023-02-07T02:30:51.887Z,0.00
2023-02-07T02:31:51.783Z,0.00
2023-02-07T02:32:51.793Z,0.00
2023-02-07T02:33:51.766Z,0.00
2023-02-07T02:34:51.763Z,0.00
2023-02-07T02:35:51.753Z,0.00
2023-02-07T02:36:51.744Z,0.00
2023-02-07T02:37:51.738Z,0.00
2023-02-07T02:38:51.723Z,0.00
2023-02-07T02:39:51.719Z,0.00
2023-02-07T02:40:51.700Z,0.00
2023-02-07T02:41:51.687Z,0.00
2023-02-07T02:42:51.695Z,0.00
2023-02-07T02:43:51.671Z,0.00
2023-02-07T02:44:51.663Z,0.00
2023-02-07T02:45:51.649Z,0.00
2023-02-07T02:46:51.637Z,0.00
2023-02-07T02:47:51.646Z,0.00
2023-02-07T02:48:51.629Z,0.00
2023-02-07T02:49:51.609Z,0.00
2023-02-07T02:50:51.604Z,0.00
2023-02-07T02:51:51.591Z,0.00
2023-02-07T02:52:51.599Z,0.00
2023-02-07T02:53:51.577Z,0.00
2023-02-07T02:54:51.568Z,0.00
2023-02-07T02:55:51.561Z,0.00
2023-02-07T02:56:51.556Z,0.00
2023-02-07T02:57:51.550Z,0.00
2023-02-07T02:58:51.536Z,0.00
2023-02-07T02:59:51.523Z,0.00
2023-02-07T03:00:51.516Z,0.00
2023-02-07T03:01:51.540Z,0.00
2023-02-07T03:02:51.505Z,0.00
2023-02-07T03:03:51.478Z,0.00
2023-02-07T03:04:51.529Z,0.00
2023-02-07T03:05:51.469Z,0.00
2023-02-07T03:06:51.479Z,0.00
2023-02-07T03:07:51.465Z,0.00
2023-02-07T03:08:51.440Z,0.00
2023-02-07T03:09:51.423Z,0.00
2023-02-07T03:10:51.417Z,0.00
2023-02-07T03:11:51.408Z,0.00
2023-02-07T03:12:51.398Z,0.00
2023-02-07T03:13:51.394Z,0.00
2023-02-07T03:14:51.386Z,0.00
2023-02-07T03:15:51.420Z,0.00
2023-02-07T03:16:51.357Z,0.00
2023-02-07T03:17:51.340Z,0.00
2023-02-07T03:18:51.339Z,0.00
2023-02-07T03:19:51.332Z,0.00
2023-02-07T03:20:51.314Z,0.00
2023-02-07T03:21:51.296Z,0.00
2023-02-07T03:22:51.294Z,0.00
2023-02-07T03:23:51.293Z,0.00
2023-02-07T03:24:51.272Z,0.00
2023-02-07T03:25:51.256Z,0.00
2023-02-07T03:26:51.263Z,0.00
2023-02-07T03:27:51.267Z,0.00
2023-02-07T03:28:51.249Z,0.00
2023-02-07T03:29:51.211Z,0.00
2023-02-07T03:30:51.244Z,0.00
2023-02-07T03:31:51.198Z,0.00
2023-02-07T03:32:51.188Z,0.00
2023-02-07T03:33:51.185Z,0.00
2023-02-07T03:34:51.172Z,0.00
2023-02-07T03:35:51.160Z,0.00
2023-02-07T03:36:51.147Z,0.00
2023-02-07T03:37:51.141Z,0.00
2023-02-07T03:38:51.147Z,0.00
2023-02-07T03:39:51.114Z,0.00
2023-02-07T03:40:51.104Z,0.00
2023-02-07T03:41:51.102Z,0.00
2023-02-07T03:42:51.092Z,0.00
2023-02-07T03:43:51.088Z,0.00
2023-02-07T03:44:51.076Z,0.00
2023-02-07T03:45:51.070Z,0.00
2023-02-07T03:46:51.128Z,0.00
2023-02-07T03:47:51.042Z,0.00
2023-02-07T03:48:51.047Z,0.00
2023-02-07T03:49:51.024Z,0.00
2023-02-07T03:50:51.020Z,0.00
2023-02-07T03:51:51.000Z,0.00
2023-02-07T03:52:51.002Z,0.00
2023-02-07T03:53:51.013Z,0.00
2023-02-07T03:54:50.983Z,0.00
2023-02-07T03:55:50.960Z,0.00
2023-02-07T03:56:50.951Z,0.00
2023-02-07T03:57:50.950Z,0.00
2023-02-07T03:58:50.937Z,0.00
2023-02-07T03:59:50.935Z,0.00
2023-02-07T04:00:50.935Z,0.00
2023-02-07T04:01:50.917Z,0.00
2023-02-07T04:02:50.897Z,0.00
2023-02-07T04:03:50.895Z,0.00
2023-02-07T04:04:50.899Z,0.00
2023-02-07T04:05:50.866Z,0.00
2023-02-07T04:06:50.851Z,0.00
2023-02-07T04:07:50.841Z,0.00
2023-02-07T04:08:50.839Z,0.00
2023-02-07T04:09:50.835Z,0.00
2023-02-07T04:10:50.837Z,0.00
2023-02-07T04:11:50.800Z,0.00
2023-02-07T04:12:50.792Z,0.00
2023-02-07T04:13:50.778Z,0.00
2023-02-07T04:14:50.787Z,0.00
2023-02-07T04:15:50.765Z,0.00
2023-02-07T04:16:50.755Z,0.00
2023-02-07T04:17:50.740Z,0.00
2023-02-07T04:18:50.734Z,0.00
2023-02-07T04:19:50.734Z,0.00
2023-02-07T04:20:50.720Z,0.00
2023-02-07T04:21:50.706Z,0.00
2023-02-07T04:22:50.705Z,0.00
2023-02-07T04:23:50.693Z,0.00
2023-02-07T04:24:50.700Z,0.00
2023-02-07T04:25:50.666Z,0.00
2023-02-07T04:26:50.668Z,0.00
2023-02-07T04:27:50.658Z,0.00
2023-02-07T04:28:50.644Z,0.00
2023-02-07T04:29:50.644Z,0.00
2023-02-07T04:30:50.632Z,0.00
2023-02-07T04:31:50.621Z,0.00
2023-02-07T04:32:50.617Z,0.00
2023-02-07T04:33:50.592Z,0.00
2023-02-07T04:34:50.593Z,0.00
2023-02-07T04:35:50.577Z,0.00
2023-02-07T04:36:50.557Z,0.00
2023-02-07T04:37:50.558Z,0.00
2023-02-07T04:38:50.541Z,0.00
2023-02-07T04:39:50.544Z,0.00
2023-02-07T04:40:50.521Z,0.00
2023-02-07T04:41:50.521Z,0.00
2023-02-07T04:42:50.509Z,0.00
2023-02-07T04:43:50.494Z,0.00
2023-02-07T04:44:50.490Z,0.00
2023-02-07T04:45:50.481Z,0.00
2023-02-07T04:46:50.458Z,0.00
2023-02-07T04:47:50.455Z,0.00
2023-02-07T04:48:50.448Z,0.00
2023-02-07T04:49:50.450Z,0.00
2023-02-07T04:50:50.424Z,0.00
2023-02-07T04:51:50.430Z,0.00
2023-02-07T04:52:50.403Z,0.00
2023-02-07T04:53:50.391Z,0.00
2023-02-07T04:54:50.388Z,0.00
2023-02-07T04:55:50.375Z,0.00
2023-02-07T04:56:50.367Z,0.00
2023-02-07T04:57:50.353Z,0.00
2023-02-07T04:58:50.339Z,0.00
2023-02-07T04:59:50.343Z,0.00
2023-02-07T05:00:50.344Z,0.00
2023-02-07T05:01:50.318Z,0.00
2023-02-07T05:02:50.301Z,0.00
2023-02-07T05:03:50.297Z,0.00
2023-02-07T05:04:50.378Z,0.00
2023-02-07T05:05:50.280Z,0.00
2023-02-07T05:06:50.266Z,0.00
2023-02-07T05:07:50.264Z,0.00
2023-02-07T05:08:50.242Z,0.00
2023-02-07T05:09:50.246Z,0.00
2023-02-07T05:10:50.235Z,0.00
2023-02-07T05:11:50.216Z,0.00
2023-02-07T05:12:50.208Z,0.00
2023-02-07T05:13:50.203Z,0.00
2023-02-07T05:14:50.198Z,0.00
2023-02-07T05:15:50.191Z,0.00
2023-02-07T05:16:50.204Z,0.00
2023-02-07T05:17:50.164Z,0.00
2023-02-07T05:18:50.148Z,0.00
2023-02-07T05:19:50.151Z,0.00
2023-02-07T05:20:52.302Z,0.00
2023-02-07T05:21:50.130Z,0.00
2023-02-07T05:22:50.106Z,0.00
2023-02-07T05:23:50.105Z,0.00
2023-02-07T05:24:50.132Z,0.00
2023-02-07T05:25:50.082Z,0.00
2023-02-07T05:26:50.078Z,0.00
2023-02-07T05:27:50.096Z,0.00
2023-02-07T05:28:50.052Z,0.00
2023-02-07T05:29:50.049Z,0.00
2023-02-07T05:30:50.123Z,0.00
2023-02-07T05:31:50.134Z,0.00
2023-02-07T05:32:50.005Z,0.00
2023-02-07T05:33:49.999Z,0.00
2023-02-07T05:34:51.154Z,0.00
2023-02-07T05:35:51.132Z,0.00
2023-02-07T05:36:51.107Z,0.00
2023-02-07T05:37:51.118Z,0.00
2023-02-07T05:38:51.105Z,0.00
2023-02-07T05:39:51.123Z,0.00
2023-02-07T05:40:51.091Z,0.00
2023-02-07T05:41:51.097Z,0.00
2023-02-07T05:42:51.052Z,0.00
2023-02-07T05:43:51.053Z,0.00
2023-02-07T05:44:51.046Z,0.00
2023-02-07T05:45:51.070Z,0.00
2023-02-07T05:46:52.636Z,0.00
2023-02-07T05:47:51.992Z,0.00
2023-02-07T05:48:50.979Z,0.00
2023-02-07T05:49:51.044Z,0.00
2023-02-07T05:50:51.037Z,0.00
2023-02-07T05:51:51.015Z,0.00
2023-02-07T05:52:51.049Z,0.00
2023-02-07T05:53:50.983Z,0.00
2023-02-07T05:54:50.993Z,0.00
2023-02-07T05:55:51.028Z,0.00
2023-02-07T05:56:50.936Z,0.00
2023-02-07T05:57:50.943Z,0.00
2023-02-07T05:58:50.971Z,0.00
2023-02-07T05:59:50.954Z,0.00
2023-02-07T06:00:50.913Z,0.00
2023-02-07T06:01:50.913Z,0.00
2023-02-07T06:02:50.981Z,0.00
2023-02-07T06:03:50.945Z,0.00
2023-02-07T06:04:50.870Z,0.00
2023-02-07T06:05:50.920Z,0.00
2023-02-07T06:06:50.851Z,0.00
2023-02-07T06:07:50.862Z,0.00
2023-02-07T06:08:50.833Z,0.00
2023-02-07T06:09:50.814Z,0.00
2023-02-07T06:10:50.857Z,0.00
2023-02-07T06:11:50.834Z,0.00
2023-02-07T06:12:50.780Z,0.00
2023-02-07T06:13:50.773Z,0.00
2023-02-07T06:14:50.771Z,0.00
2023-02-07T06:15:50.788Z,0.00
2023-02-07T06:16:50.761Z,0.00
2023-02-07T06:17:50.782Z,0.00
2023-02-07T06:18:50.699Z,0.00
2023-02-07T06:19:53.296Z,0.00
2023-02-07T06:20:50.741Z,0.00
2023-02-07T06:21:50.720Z,0.00
2023-02-07T06:22:50.681Z,0.00
2023-02-07T06:23:50.678Z,0.00
2023-02-07T06:24:50.704Z,0.00
2023-02-07T06:25:50.649Z,0.00
2023-02-07T06:26:50.628Z,0.00
2023-02-07T06:27:50.644Z,0.00
2023-02-07T06:28:50.609Z,0.00
2023-02-07T06:29:50.621Z,0.00
2023-02-07T06:30:50.716Z,0.00
2023-02-07T06:31:50.609Z,0.00
2023-02-07T06:32:50.565Z,0.00
2023-02-07T06:33:50.560Z,0.00
2023-02-07T06:34:50.557Z,0.00
2023-02-07T06:35:50.576Z,0.00
2023-02-07T06:36:50.535Z,0.00
2023-02-07T06:37:50.520Z,0.00
2023-02-07T06:38:50.526Z,0.00
2023-02-07T06:39:50.545Z,0.00
2023-02-07T06:40:50.522Z,0.00
2023-02-07T06:41:50.493Z,0.00
2023-02-07T06:42:50.488Z,0.00
2023-02-07T06:43:50.510Z,5.62
2023-02-07T06:44:50.479Z,5.62
2023-02-07T06:45:50.495Z,5.62
2023-02-07T06:46:50.484Z,5.62
2023-02-07T06:47:50.463Z,5.62
2023-02-07T06:48:50.457Z,5.62
2023-02-07T06:49:50.452Z,5.62
2023-02-07T06:50:50.426Z,5.62
2023-02-07T06:51:50.416Z,11.25
2023-02-07T06:52:50.420Z,11.25
2023-02-07T06:53:50.400Z,11.25
2023-02-07T06:54:50.428Z,11.25
2023-02-07T06:55:50.385Z,11.25
2023-02-07T06:56:50.392Z,11.25
2023-02-07T06:57:50.368Z,16.88
2023-02-07T06:58:50.342Z,16.88
2023-02-07T06:59:50.336Z,16.88
2023-02-07T07:00:50.357Z,16.88
2023-02-07T07:01:50.409Z,16.88
2023-02-07T07:02:50.360Z,22.50
2023-02-07T07:03:50.302Z,22.50
2023-02-07T07:04:50.286Z,22.50
2023-02-07T07:05:50.294Z,22.50
2023-02-07T07:06:50.253Z,28.12
2023-02-07T07:07:50.256Z,28.12
2023-02-07T07:08:50.228Z,28.12
2023-02-07T07:09:50.249Z,28.12
2023-02-07T07:10:50.234Z,33.75
2023-02-07T07:11:50.202Z,33.75
2023-02-07T07:12:50.234Z,39.38
2023-02-07T07:13:50.178Z,39.38
2023-02-07T07:14:50.165Z,45.00
2023-02-07T07:15:50.219Z,45.00
2023-02-07T07:16:50.163Z,45.00
2023-02-07T07:17:50.129Z,50.62
2023-02-07T07:18:50.161Z,50.62
2023-02-07T07:19:50.160Z,56.25
2023-02-07T07:20:50.126Z,56.25
2023-02-07T07:21:50.111Z,56.25
2023-02-07T07:22:50.148Z,61.88
2023-02-07T07:23:50.084Z,61.88
2023-02-07T07:24:50.122Z,61.88
2023-02-07T07:25:50.105Z,61.88
2023-02-07T07:26:51.113Z,67.50
2023-02-07T07:27:50.125Z,67.50
2023-02-07T07:28:50.064Z,73.12
2023-02-07T07:29:50.056Z,73.12
2023-02-07T07:30:50.110Z,73.12
2023-02-07T07:31:51.122Z,78.75
2023-02-07T07:32:50.049Z,78.75
2023-02-07T07:33:50.028Z,84.38
2023-02-07T07:34:50.039Z,84.38
2023-02-07T07:35:50.008Z,90.00
2023-02-07T07:36:49.993Z,90.00
2023-02-07T07:37:49.986Z,90.00
2023-02-07T07:38:51.236Z,90.00
2023-02-07T07:39:49.961Z,95.62
2023-02-07T07:40:49.986Z,95.62
2023-02-07T07:41:49.939Z,95.62
2023-02-07T07:42:49.895Z,95.62
2023-02-07T07:43:49.889Z,101.25
2023-02-07T07:44:49.889Z,101.25
2023-02-07T07:45:49.897Z,106.88
2023-02-07T07:46:49.987Z,112.50
2023-02-07T07:47:49.892Z,112.50
2023-02-07T07:48:49.872Z,118.12
2023-02-07T07:49:51.089Z,123.75
2023-02-07T07:50:49.871Z,123.75
2023-02-07T07:51:49.810Z,123.75
2023-02-07T07:52:49.825Z,129.38
2023-02-07T07:53:49.811Z,135.00
2023-02-07T07:54:49.806Z,135.00
2023-02-07T07:55:49.776Z,140.62
2023-02-07T07:56:49.795Z,140.62
2023-02-07T07:57:49.764Z,146.25
2023-02-07T07:58:49.760Z,146.25
2023-02-07T07:59:49.749Z,151.88
2023-02-07T08:00:49.818Z,151.88
2023-02-07T08:01:49.761Z,157.50
2023-02-07T08:02:49.749Z,157.50
2023-02-07T08:03:49.747Z,157.50
2023-02-07T08:04:49.684Z,163.12
2023-02-07T08:05:49.712Z,163.12
2023-02-07T08:06:49.696Z,168.75
2023-02-07T08:07:49.654Z,168.75
2023-02-07T08:08:49.711Z,174.38
2023-02-07T08:09:49.623Z,180.00
2023-02-07T08:10:49.636Z,180.00
2023-02-07T08:11:49.662Z,185.62
2023-02-07T08:12:49.621Z,185.62
2023-02-07T08:13:49.590Z,185.62
2023-02-07T08:14:49.605Z,191.25
2023-02-07T08:15:49.622Z,196.88
2023-02-07T08:16:49.624Z,202.50
2023-02-07T08:17:49.588Z,208.12
2023-02-07T08:18:49.581Z,213.75
2023-02-07T08:19:49.560Z,219.38
2023-02-07T08:20:49.592Z,253.12
2023-02-07T08:21:49.562Z,315.00
2023-02-07T08:22:49.573Z,337.50
2023-02-07T08:23:49.540Z,286.88
2023-02-07T08:24:49.509Z,247.50
2023-02-07T08:25:49.527Z,230.62
2023-02-07T08:26:49.522Z,230.62
2023-02-07T08:27:49.466Z,230.62
2023-02-07T08:28:49.488Z,225.00
2023-02-07T08:29:49.441Z,225.00
2023-02-07T08:30:49.466Z,225.00
2023-02-07T08:31:49.568Z,225.00
2023-02-07T08:32:49.436Z,225.00
2023-02-07T08:33:49.449Z,230.62
2023-02-07T08:34:49.414Z,230.62
2023-02-07T08:35:49.435Z,236.25
2023-02-07T08:36:49.408Z,236.25
2023-02-07T08:37:49.374Z,236.25
2023-02-07T08:38:49.364Z,241.88
2023-02-07T08:39:49.429Z,247.50
2023-02-07T08:40:49.374Z,253.12
2023-02-07T08:41:49.354Z,253.12
2023-02-07T08:42:49.381Z,258.75
2023-02-07T08:43:49.326Z,258.75
2023-02-07T08:44:49.316Z,258.75
2023-02-07T08:45:49.410Z,264.38
2023-02-07T08:46:49.298Z,264.38
2023-02-07T08:47:49.279Z,264.38
2023-02-07T08:48:49.283Z,270.00
2023-02-07T08:49:49.240Z,270.00
2023-02-07T08:50:49.250Z,270.00
2023-02-07T08:51:49.226Z,270.00
2023-02-07T08:52:49.209Z,275.62
2023-02-07T08:53:49.206Z,275.62
2023-02-07T08:54:49.189Z,281.25
2023-02-07T08:55:49.191Z,281.25
2023-02-07T08:56:49.241Z,281.25
2023-02-07T08:57:49.199Z,281.25
2023-02-07T08:58:49.206Z,286.88
2023-02-07T08:59:49.203Z,286.88
2023-02-07T09:00:49.200Z,286.88
2023-02-07T09:01:49.183Z,286.88
2023-02-07T09:02:49.170Z,292.50
2023-02-07T09:03:49.160Z,292.50
2023-02-07T09:04:49.171Z,298.12
2023-02-07T09:05:49.152Z,298.12
2023-02-07T09:06:49.152Z,298.12
2023-02-07T09:07:49.149Z,303.75
2023-02-07T09:08:50.126Z,303.75
2023-02-07T09:09:49.078Z,309.38
2023-02-07T09:10:49.105Z,320.62
2023-02-07T09:11:49.088Z,337.50
2023-02-07T09:12:49.035Z,354.38
2023-02-07T09:13:49.022Z,382.50
2023-02-07T09:14:49.050Z,399.38
2023-02-07T09:15:49.017Z,433.12
2023-02-07T09:16:49.066Z,472.50
2023-02-07T09:17:49.022Z,545.62
2023-02-07T09:18:50.337Z,551.25
2023-02-07T09:19:48.979Z,393.75
2023-02-07T09:20:48.992Z,315.00
2023-02-07T09:21:48.981Z,309.38
2023-02-07T09:22:48.981Z,309.38
2023-02-07T09:23:48.947Z,315.00
2023-02-07T09:24:48.935Z,315.00
2023-02-07T09:25:48.893Z,315.00
2023-02-07T09:26:49.023Z,315.00
2023-02-07T09:27:48.978Z,315.00
2023-02-07T09:28:48.933Z,315.00
2023-02-07T09:29:48.869Z,315.00
2023-02-07T09:30:49.317Z,315.00
2023-02-07T09:31:49.144Z,320.62
2023-02-07T09:32:48.904Z,320.62
2023-02-07T09:33:48.896Z,320.62
2023-02-07T09:34:48.903Z,320.62
2023-02-07T09:35:48.886Z,326.25
2023-02-07T09:36:48.867Z,326.25
2023-02-07T09:37:50.155Z,326.25
2023-02-07T09:38:49.887Z,326.25
2023-02-07T09:39:48.856Z,326.25
2023-02-07T09:40:48.783Z,331.88
2023-02-07T09:41:48.780Z,331.88
2023-02-07T09:42:48.855Z,331.88
2023-02-07T09:43:48.975Z,360.00
2023-02-07T09:44:48.970Z,545.62
2023-02-07T09:45:48.785Z,1541.25
2023-02-07T09:46:48.808Z,3082.50
2023-02-07T09:47:49.291Z,3532.50
2023-02-07T09:48:48.727Z,3549.38
2023-02-07T09:49:48.693Z,3661.88
2023-02-07T09:50:48.706Z,3645.00
2023-02-07T09:51:48.704Z,3560.62
2023-02-07T09:52:48.669Z,3723.75
2023-02-07T09:53:48.663Z,3667.50
2023-02-07T09:54:48.664Z,3594.38
2023-02-07T09:55:48.654Z,3858.75
2023-02-07T09:56:48.716Z,3875.62
2023-02-07T09:57:48.695Z,3898.12
2023-02-07T09:58:48.672Z,3886.88
2023-02-07T09:59:48.623Z,3909.38
2023-02-07T10:00:48.740Z,3943.12
2023-02-07T10:01:48.709Z,3763.12
2023-02-07T10:02:48.752Z,3847.50
2023-02-07T10:03:48.606Z,4055.62
2023-02-07T10:04:48.514Z,3971.25
2023-02-07T10:05:48.533Z,3948.75
2023-02-07T10:06:48.533Z,3993.75
2023-02-07T10:07:48.518Z,3971.25
2023-02-07T10:08:48.511Z,3858.75
2023-02-07T10:09:48.465Z,3774.38
2023-02-07T10:10:48.466Z,3588.75
2023-02-07T10:11:48.461Z,3796.88
2023-02-07T10:12:48.442Z,3988.12
2023-02-07T10:13:48.470Z,3847.50
2023-02-07T10:14:48.424Z,3695.62
2023-02-07T10:15:48.498Z,3993.75
2023-02-07T10:16:48.402Z,4089.38
2023-02-07T10:17:48.394Z,4027.50
2023-02-07T10:18:48.400Z,4027.50
2023-02-07T10:19:48.388Z,4005.00
2023-02-07T10:20:48.381Z,4089.38
2023-02-07T10:21:48.377Z,4016.25
2023-02-07T10:22:48.447Z,3988.12
2023-02-07T10:23:48.419Z,4066.88
2023-02-07T10:24:48.347Z,4072.50
2023-02-07T10:25:48.368Z,4106.25
2023-02-07T10:26:48.331Z,4033.12
2023-02-07T10:27:48.374Z,4038.75
2023-02-07T10:28:48.302Z,4117.50
2023-02-07T10:29:48.284Z,4201.88
2023-02-07T10:30:48.330Z,4089.38
2023-02-07T10:31:48.317Z,3960.00
2023-02-07T10:32:48.281Z,4128.75
2023-02-07T10:33:48.249Z,4241.25
2023-02-07T10:34:48.242Z,4246.88
2023-02-07T10:35:48.229Z,4190.62
2023-02-07T10:36:48.237Z,4162.50
2023-02-07T10:37:48.215Z,4201.88
2023-02-07T10:38:52.110Z,4162.50
2023-02-07T10:39:49.176Z,4230.00
2023-02-07T10:40:48.244Z,4241.25
2023-02-07T10:41:48.220Z,4190.62
2023-02-07T10:42:48.190Z,4297.50
2023-02-07T10:43:48.141Z,4218.75
2023-02-07T10:44:48.156Z,4235.62
2023-02-07T10:45:54.243Z,4207.50
2023-02-07T10:46:50.171Z,4314.38
2023-02-07T10:47:48.117Z,4314.38
2023-02-07T10:48:48.523Z,4365.00
2023-02-07T10:49:49.085Z,4466.25
2023-02-07T10:50:48.043Z,4488.75
2023-02-07T10:51:48.055Z,4455.00
2023-02-07T10:52:48.025Z,4432.50
2023-02-07T10:53:55.554Z,4466.25
2023-02-07T10:54:50.004Z,4376.25
2023-02-07T10:55:48.018Z,4370.62
2023-02-07T10:56:47.989Z,4308.75
2023-02-07T10:57:54.140Z,4320.00
2023-02-07T10:58:50.024Z,4359.38
2023-02-07T10:59:47.959Z,4336.88
2023-02-07T11:00:47.939Z,4325.62
2023-02-07T11:01:47.966Z,4331.25
2023-02-07T11:02:47.957Z,4241.25
2023-02-07T11:03:47.910Z,4230.00
2023-02-07T11:04:47.898Z,4168.12
2023-02-07T11:05:47.899Z,4291.88
2023-02-07T11:06:47.885Z,4471.88
2023-02-07T11:07:48.305Z,4477.50
2023-02-07T11:08:48.876Z,4432.50
2023-02-07T11:09:47.865Z,4522.50
2023-02-07T11:10:47.848Z,4477.50
2023-02-07T11:11:47.854Z,4516.88
2023-02-07T11:12:47.849Z,4561.88
2023-02-07T11:13:47.829Z,4471.88
2023-02-07T11:14:53.006Z,4460.62
2023-02-07T11:15:49.873Z,4336.88
2023-02-07T11:16:47.794Z,4325.62
2023-02-07T11:17:47.784Z,4426.88
2023-02-07T11:18:47.779Z,4483.12
2023-02-07T11:19:47.802Z,4415.62
2023-02-07T11:20:47.758Z,4477.50
2023-02-07T11:21:47.741Z,4500.00
2023-02-07T11:22:47.727Z,4500.00
2023-02-07T11:23:47.724Z,4567.50
2023-02-07T11:24:47.717Z,4550.62
2023-02-07T11:25:47.703Z,4657.50
2023-02-07T11:26:47.690Z,4668.75
2023-02-07T11:27:47.682Z,4623.75
2023-02-07T11:28:47.685Z,4640.62
2023-02-07T11:29:47.669Z,4584.38
2023-02-07T11:30:47.663Z,4623.75
2023-02-07T11:31:47.670Z,4674.38
2023-02-07T11:32:47.634Z,4674.38
2023-02-07T11:33:47.648Z,4663.12
2023-02-07T11:34:47.638Z,4584.38
2023-02-07T11:35:47.604Z,4612.50
2023-02-07T11:36:47.608Z,4646.25
2023-02-07T11:37:47.636Z,4629.38
2023-02-07T11:38:47.592Z,4595.62
2023-02-07T11:39:47.565Z,4635.00
2023-02-07T11:40:47.563Z,4528.12
2023-02-07T11:41:47.550Z,4550.62
2023-02-07T11:42:47.549Z,4550.62
2023-02-07T11:43:47.545Z,4561.88
2023-02-07T11:44:47.532Z,4533.75
2023-02-07T11:45:47.512Z,4516.88
2023-02-07T11:46:47.574Z,4505.62
2023-02-07T11:47:47.495Z,4545.00
2023-02-07T11:48:47.501Z,4556.25
2023-02-07T11:49:47.485Z,4595.62
2023-02-07T11:50:47.469Z,4573.12
2023-02-07T11:51:47.452Z,4601.25
2023-02-07T11:52:47.453Z,4725.00
2023-02-07T11:53:47.457Z,4680.00
2023-02-07T11:54:47.427Z,4651.88
2023-02-07T11:55:47.418Z,4629.38
2023-02-07T11:56:47.406Z,4685.62
2023-02-07T11:57:47.419Z,4545.00
2023-02-07T11:58:47.437Z,4601.25
2023-02-07T11:59:47.404Z,4601.25
2023-02-07T12:00:47.373Z,4640.62
2023-02-07T12:01:47.412Z,4612.50
2023-02-07T12:02:47.348Z,4618.12
2023-02-07T12:03:47.362Z,4516.88
2023-02-07T12:04:47.420Z,4426.88
2023-02-07T12:05:47.334Z,4556.25
2023-02-07T12:06:47.319Z,4590.00
2023-02-07T12:07:47.306Z,4556.25
2023-02-07T12:08:47.309Z,4539.38
2023-02-07T12:09:47.296Z,4573.12
2023-02-07T12:10:47.289Z,4606.88
2023-02-07T12:11:47.336Z,4663.12
2023-02-07T12:12:47.271Z,4770.00
2023-02-07T12:13:47.256Z,4635.00
2023-02-07T12:14:47.247Z,4618.12
2023-02-07T12:15:47.230Z,4696.88
2023-02-07T12:16:47.239Z,4713.75
2023-02-07T12:17:47.214Z,4533.75
2023-02-07T12:18:47.211Z,4488.75
2023-02-07T12:19:47.205Z,4466.25
2023-02-07T12:20:47.200Z,4471.88
2023-02-07T12:21:47.181Z,4539.38
2023-02-07T12:22:53.172Z,4561.88
2023-02-07T12:23:49.184Z,4640.62
2023-02-07T12:24:47.153Z,4640.62
2023-02-07T12:25:47.142Z,4668.75
2023-02-07T12:26:47.171Z,4640.62
2023-02-07T12:27:47.142Z,4590.00
2023-02-07T12:28:47.123Z,4595.62
2023-02-07T12:29:47.105Z,4545.00
2023-02-07T12:30:47.134Z,4595.62
2023-02-07T12:31:47.230Z,4612.50
2023-02-07T12:32:47.239Z,4696.88
2023-02-07T12:33:47.074Z,4623.75
2023-02-07T12:34:47.079Z,4539.38
2023-02-07T12:35:56.875Z,4573.12
2023-02-07T12:36:49.045Z,4635.00
2023-02-07T12:37:47.045Z,4651.88
2023-02-07T12:38:47.034Z,4657.50
2023-02-07T12:39:47.030Z,4685.62
2023-02-07T12:40:47.011Z,4809.38
2023-02-07T12:41:47.003Z,4708.12
2023-02-07T12:42:46.994Z,4590.00
2023-02-07T12:43:46.985Z,4533.75
2023-02-07T12:44:47.004Z,4550.62
2023-02-07T12:45:47.069Z,4618.12
2023-02-07T12:46:46.975Z,4578.75
2023-02-07T12:47:46.961Z,4522.50
2023-02-07T12:48:46.938Z,4522.50
2023-02-07T12:49:46.938Z,4539.38
2023-02-07T12:50:46.920Z,4550.62